createdAt,value
2018-06-23T00:00:39.416Z,99269.73
2018-06-23T00:03:10.113Z,99268.56
2018-06-23T00:05:39.569Z,99267.64
2018-06-23T00:08:09.215Z,99265.82
2018-06-23T00:10:38.651Z,99261.25
2018-06-23T00:13:08.071Z,99259.44
2018-06-23T00:15:37.525Z,99263.90
2018-06-23T00:18:07.050Z,99248.73
2018-06-23T00:20:36.427Z,99255.34
2018-06-23T00:23:05.867Z,99252.66
2018-06-23T00:25:40.263Z,99260.45
2018-06-23T00:28:10.182Z,99255.86
2018-06-23T00:30:39.640Z,99253.91
2018-06-23T00:33:09.054Z,99257.05
2018-06-23T00:35:38.443Z,99253.20
2018-06-23T00:38:07.831Z,99253.26
2018-06-23T00:40:37.286Z,99249.87
2018-06-23T00:43:06.787Z,99252.13
2018-06-23T00:45:36.224Z,99249.08
2018-06-23T00:48:05.679Z,99249.16
2018-06-23T00:50:35.128Z,99246.25
2018-06-23T00:53:04.608Z,99238.95
2018-06-23T00:55:34.089Z,99241.77
2018-06-23T00:58:03.635Z,99246.73
2018-06-23T01:00:33.231Z,99243.50
2018-06-23T01:03:02.633Z,99244.33
2018-06-23T01:05:32.094Z,99243.59
2018-06-23T01:08:01.574Z,99245.43
2018-06-23T01:10:31.042Z,99249.55
2018-06-23T01:13:00.411Z,99249.32
2018-06-23T01:15:29.879Z,99254.52
2018-06-23T01:17:59.270Z,99249.59
2018-06-23T01:20:28.772Z,99247.42
2018-06-23T01:22:58.185Z,99254.64
2018-06-23T01:25:27.648Z,99247.97
2018-06-23T01:27:57.065Z,99250.41
2018-06-23T01:30:26.533Z,99252.30
2018-06-23T01:32:56.030Z,99261.42
2018-06-23T01:35:25.415Z,99263.12
2018-06-23T01:37:54.804Z,99264.27
2018-06-23T01:40:24.204Z,99253.03
2018-06-23T01:42:53.641Z,99256.65
2018-06-23T01:45:23.052Z,99256.14
2018-06-23T01:47:52.555Z,99255.75
2018-06-23T01:50:21.926Z,99257.08
2018-06-23T01:52:51.335Z,99258.69
2018-06-23T01:55:20.736Z,99264.22
2018-06-23T01:57:50.178Z,99259.34
2018-06-23T02:00:19.648Z,99255.19
2018-06-23T02:02:49.107Z,99260.57
2018-06-23T02:05:18.544Z,99257.75
2018-06-23T02:07:47.975Z,99257.86
2018-06-23T02:10:17.440Z,99251.34
2018-06-23T02:12:46.653Z,99251.52
2018-06-23T02:15:16.039Z,99255.06
2018-06-23T02:17:50.401Z,99251.70
2018-06-23T02:22:30.306Z,99250.70
2018-06-23T02:25:04.986Z,99250.41
2018-06-23T02:27:39.526Z,99250.46
2018-06-23T02:30:14.069Z,99246.80
2018-06-23T02:32:45.216Z,99245.54
2018-06-23T02:35:14.671Z,99246.72
2018-06-23T02:37:44.083Z,99254.19
2018-06-23T02:40:13.552Z,99252.35
2018-06-23T02:42:42.916Z,99252.40
2018-06-23T02:45:12.406Z,99252.19
2018-06-23T02:47:43.359Z,99255.55
2018-06-23T02:50:12.797Z,99255.00
2018-06-23T02:52:42.197Z,99251.71
2018-06-23T02:55:11.622Z,99257.49
2018-06-23T02:57:40.771Z,99252.92
2018-06-23T03:00:10.287Z,99250.64
2018-06-23T03:02:39.733Z,99256.73
2018-06-23T03:05:09.747Z,99257.27
2018-06-23T03:07:38.949Z,99256.38
2018-06-23T03:10:08.371Z,99262.13
2018-06-23T03:12:37.772Z,99266.08
2018-06-23T03:15:07.237Z,99256.20
2018-06-23T03:17:36.399Z,99257.41
2018-06-23T03:20:05.830Z,99257.49
2018-06-23T03:22:35.293Z,99250.77
2018-06-23T03:25:04.752Z,99260.46
2018-06-23T03:27:34.164Z,99259.45
2018-06-23T03:30:03.741Z,99260.02
2018-06-23T03:32:33.207Z,99262.27
2018-06-23T03:35:02.631Z,99265.67
2018-06-23T03:37:32.050Z,99267.98
2018-06-23T03:40:01.467Z,99266.27
2018-06-23T03:42:30.912Z,99262.46
2018-06-23T03:45:00.356Z,99266.59
2018-06-23T03:47:29.761Z,99255.06
2018-06-23T03:49:59.285Z,99265.73
2018-06-23T03:52:28.706Z,99267.86
2018-06-23T03:54:58.136Z,99269.80
2018-06-23T03:57:27.501Z,99265.70
2018-06-23T03:59:56.902Z,99271.45
2018-06-23T04:02:26.306Z,99264.37
2018-06-23T04:04:55.716Z,99267.86
2018-06-23T04:07:25.234Z,99271.16
2018-06-23T04:09:54.608Z,99271.99
2018-06-23T04:12:24.550Z,99270.81
2018-06-23T04:14:53.994Z,99271.89
2018-06-23T04:17:23.416Z,99272.47
2018-06-23T04:19:52.853Z,99280.00
2018-06-23T04:22:22.288Z,99295.19
2018-06-23T04:24:51.725Z,99284.32
2018-06-23T04:27:21.150Z,99292.10
2018-06-23T04:29:50.908Z,99286.89
2018-06-23T04:32:20.354Z,99280.66
2018-06-23T04:34:49.771Z,99275.16
2018-06-23T04:37:19.219Z,99275.80
2018-06-23T04:39:48.629Z,99277.23
2018-06-23T04:42:18.083Z,99281.70
2018-06-23T04:44:47.480Z,99283.52
2018-06-23T04:47:16.923Z,99280.73
2018-06-23T04:49:46.852Z,99285.52
2018-06-23T04:52:16.249Z,99282.75
2018-06-23T04:54:45.646Z,99273.67
2018-06-23T04:57:15.060Z,99278.55
2018-06-23T04:59:44.454Z,99276.52
2018-06-23T05:02:13.974Z,99282.58
2018-06-23T05:04:43.409Z,99278.86
2018-06-23T05:07:12.862Z,99277.92
2018-06-23T05:09:42.295Z,99277.70
2018-06-23T05:12:11.796Z,99271.84
2018-06-23T05:14:41.163Z,99277.19
2018-06-23T05:17:10.633Z,99275.61
2018-06-23T05:19:40.017Z,99271.05
2018-06-23T05:22:09.440Z,99278.65
2018-06-23T05:24:38.810Z,99275.07
2018-06-23T05:27:08.203Z,99271.40
2018-06-23T05:29:37.616Z,99267.09
2018-06-23T05:32:07.241Z,99280.16
2018-06-23T05:34:36.739Z,99275.11
2018-06-23T05:37:06.171Z,99272.13
2018-06-23T05:39:35.598Z,99272.22
2018-06-23T05:42:05.043Z,99270.64
2018-06-23T05:44:34.473Z,99274.54
2018-06-23T05:47:03.896Z,99284.97
2018-06-23T05:49:33.308Z,99285.51
2018-06-23T05:52:02.689Z,99281.95
2018-06-23T05:54:32.145Z,99287.75
2018-06-23T05:57:01.582Z,99282.89
2018-06-23T05:59:30.922Z,99284.22
2018-06-23T06:02:00.368Z,99279.51
2018-06-23T06:04:29.753Z,99286.42
2018-06-23T06:06:59.257Z,99287.28
2018-06-23T06:09:28.649Z,99295.15
2018-06-23T06:11:58.083Z,99290.23
2018-06-23T06:14:27.955Z,99291.55
2018-06-23T06:17:26.091Z,99296.84
2018-06-23T06:19:56.605Z,99291.41
2018-06-23T06:22:27.236Z,99295.52
2018-06-23T06:24:56.907Z,99287.17
2018-06-23T06:27:26.438Z,99276.50
2018-06-23T06:29:56.989Z,99278.45
2018-06-23T06:32:26.906Z,99279.27
2018-06-23T06:34:56.404Z,99280.05
2018-06-23T06:37:25.889Z,99279.86
2018-06-23T06:39:55.257Z,99279.00
2018-06-23T06:42:24.748Z,99276.19
2018-06-23T06:44:54.214Z,99277.63
2018-06-23T06:47:23.681Z,99283.89
2018-06-23T06:49:52.842Z,99276.01
2018-06-23T06:52:22.294Z,99280.09
2018-06-23T06:54:51.396Z,99285.81
2018-06-23T06:57:21.894Z,99285.62
2018-06-23T06:59:51.378Z,99286.09
2018-06-23T07:02:20.785Z,99282.78
2018-06-23T07:04:50.416Z,99284.55
2018-06-23T07:07:19.884Z,99289.54
2018-06-23T07:09:49.303Z,99281.64
2018-06-23T07:12:18.764Z,99281.56
2018-06-23T07:14:48.887Z,99286.99
2018-06-23T07:17:18.308Z,99285.80
2018-06-23T07:19:47.792Z,99281.12
2018-06-23T07:22:17.227Z,99282.82
2018-06-23T07:24:46.701Z,99291.83
2018-06-23T07:27:16.155Z,99287.70
2018-06-23T07:29:45.579Z,99288.62
2018-06-23T07:32:14.970Z,99290.63
2018-06-23T07:34:44.519Z,99296.48
2018-06-23T07:37:13.938Z,99291.14
2018-06-23T07:39:43.367Z,99292.64
2018-06-23T07:42:12.768Z,99291.16
2018-06-23T07:44:42.215Z,99296.91
2018-06-23T07:47:11.671Z,99303.23
2018-06-23T07:49:41.115Z,99304.08
2018-06-23T07:52:10.537Z,99297.80
2018-06-23T07:54:39.961Z,99298.39
2018-06-23T07:57:09.410Z,99295.20
2018-06-23T07:59:38.830Z,99299.72
2018-06-23T08:02:08.308Z,99285.50
2018-06-23T08:04:37.734Z,99287.22
2018-06-23T08:07:07.193Z,99292.05
2018-06-23T08:09:36.595Z,99287.78
2018-06-23T08:12:06.130Z,99283.77
2018-06-23T08:14:35.625Z,99281.12
2018-06-23T08:17:05.143Z,99276.36
2018-06-23T08:19:34.532Z,99269.53
2018-06-23T08:22:03.946Z,99262.09
2018-06-23T08:24:33.327Z,99257.95
2018-06-23T08:27:02.756Z,99264.89
2018-06-23T08:29:32.267Z,99256.42
2018-06-23T08:32:01.675Z,99252.06
2018-06-23T08:34:31.123Z,99241.24
2018-06-23T08:37:00.548Z,99235.41
2018-06-23T08:39:30.078Z,99233.49
2018-06-23T08:41:59.599Z,99234.20
2018-06-23T08:44:29.008Z,99237.62
2018-06-23T08:46:58.448Z,99248.13
2018-06-23T08:49:27.926Z,99237.00
2018-06-23T08:51:57.347Z,99229.05
2018-06-23T08:54:27.759Z,99228.40
2018-06-23T08:56:57.297Z,99226.30
2018-06-23T08:59:26.705Z,99225.97
2018-06-23T09:01:56.690Z,99226.04
2018-06-23T09:04:26.306Z,99212.39
2018-06-23T09:06:55.800Z,99214.39
2018-06-23T09:09:25.566Z,99223.56
2018-06-23T09:11:54.986Z,99221.44
2018-06-23T09:14:24.458Z,99222.38
2018-06-23T09:16:53.977Z,99220.12
2018-06-23T09:19:23.413Z,99216.76
2018-06-23T09:21:52.866Z,99209.61
2018-06-23T09:24:22.278Z,99203.88
2018-06-23T09:26:51.407Z,99201.37
2018-06-23T09:29:20.853Z,99199.59
2018-06-23T09:31:50.308Z,99206.38
2018-06-23T09:34:19.804Z,99203.03
2018-06-23T09:36:48.955Z,99196.01
2018-06-23T09:39:18.386Z,99200.53
2018-06-23T09:41:47.873Z,99199.34
2018-06-23T09:44:17.365Z,99195.48
2018-06-23T09:46:46.819Z,99194.82
2018-06-23T09:49:16.250Z,99196.32
2018-06-23T09:51:45.702Z,99197.39
2018-06-23T09:54:15.097Z,99199.88
2018-06-23T09:56:44.577Z,99189.94
2018-06-23T09:59:14.044Z,99194.74
2018-06-23T10:01:43.171Z,99194.12
2018-06-23T10:04:12.612Z,99188.52
2018-06-23T10:06:42.045Z,99187.88
2018-06-23T10:09:11.739Z,99195.66
2018-06-23T10:11:41.185Z,99188.16
2018-06-23T10:14:10.612Z,99190.30
2018-06-23T10:16:40.060Z,99191.22
2018-06-23T10:19:09.531Z,99185.44
2018-06-23T10:21:38.962Z,99191.35
2018-06-23T10:24:08.371Z,99187.58
2018-06-23T10:26:37.744Z,99181.30
2018-06-23T10:29:07.224Z,99184.34
2018-06-23T10:31:36.677Z,99182.03
2018-06-23T10:34:06.680Z,99180.61
2018-06-23T10:36:36.130Z,99179.97
2018-06-23T10:39:09.388Z,99175.70
2018-06-23T10:41:39.424Z,99190.25
2018-06-23T10:44:08.931Z,99185.66
2018-06-23T10:46:38.351Z,99193.36
2018-06-23T10:49:07.795Z,99200.50
2018-06-23T10:51:37.449Z,99196.24
2018-06-23T10:54:07.199Z,99201.64
2018-06-23T10:56:36.604Z,99189.09
2018-06-23T10:59:06.121Z,99196.34
2018-06-23T11:01:35.580Z,99191.05
2018-06-23T11:04:05.037Z,99194.94
2018-06-23T11:06:34.526Z,99188.06
2018-06-23T11:09:04.715Z,99180.64
2018-06-23T11:11:35.069Z,99181.95
2018-06-23T11:14:04.545Z,99173.20
2018-06-23T11:16:33.980Z,99158.66
2018-06-23T11:19:03.961Z,99163.01
2018-06-23T11:21:33.592Z,99160.99
2018-06-23T11:24:03.016Z,99169.20
2018-06-23T11:26:32.399Z,99171.45
2018-06-23T11:29:01.848Z,99172.05
2018-06-23T11:31:31.246Z,99176.25
2018-06-23T11:34:00.674Z,99175.78
2018-06-23T11:36:30.091Z,99176.35
2018-06-23T11:38:59.498Z,99171.38
2018-06-23T11:41:28.935Z,99167.80
2018-06-23T11:43:58.130Z,99168.23
2018-06-23T11:46:27.649Z,99178.78
2018-06-23T11:48:57.104Z,99165.77
2018-06-23T11:51:26.569Z,99171.33
2018-06-23T11:53:55.991Z,99160.55
2018-06-23T11:56:25.396Z,99165.58
2018-06-23T11:58:54.821Z,99163.39
2018-06-23T12:01:24.259Z,99151.57
2018-06-23T12:03:53.677Z,99150.11
2018-06-23T12:06:24.994Z,99156.36
2018-06-23T12:08:55.751Z,99152.38
2018-06-23T12:11:26.129Z,99146.59
2018-06-23T12:13:55.565Z,99151.73
2018-06-23T12:16:25.033Z,99151.30
2018-06-23T12:18:54.525Z,99149.46
2018-06-23T12:21:23.967Z,99152.80
2018-06-23T12:23:53.553Z,99163.47
2018-06-23T12:26:22.980Z,99163.27
2018-06-23T12:28:52.403Z,99160.70
2018-06-23T12:31:21.852Z,99161.05
2018-06-23T12:33:51.287Z,99170.72
2018-06-23T12:36:20.692Z,99166.62
2018-06-23T12:38:50.148Z,99165.06
2018-06-23T12:41:19.606Z,99170.67
2018-06-23T12:43:49.080Z,99164.19
2018-06-23T12:46:18.550Z,99162.98
2018-06-23T12:48:48.001Z,99149.55
2018-06-23T12:51:17.440Z,99149.46
2018-06-23T12:53:46.942Z,99156.20
2018-06-23T12:56:16.426Z,99158.38
2018-06-23T12:58:45.836Z,99161.61
2018-06-23T13:01:15.312Z,99161.84
2018-06-23T13:03:44.929Z,99168.47
2018-06-23T13:06:14.353Z,99174.87
2018-06-23T13:08:44.433Z,99174.84
2018-06-23T13:11:13.964Z,99172.86
2018-06-23T13:13:43.334Z,99178.94
2018-06-23T13:16:12.836Z,99180.45
2018-06-23T13:18:42.807Z,99172.94
2018-06-23T13:21:12.320Z,99181.16
2018-06-23T13:23:41.764Z,99181.05
2018-06-23T13:26:11.222Z,99177.77
2018-06-23T13:28:40.620Z,99173.06
2018-06-23T13:31:10.059Z,99174.81
2018-06-23T13:33:39.516Z,99174.81
2018-06-23T13:36:08.628Z,99170.67
2018-06-23T13:38:38.072Z,99164.80
2018-06-23T13:41:07.673Z,99166.90
2018-06-23T13:43:37.069Z,99161.76
2018-06-23T13:46:06.622Z,99152.71
2018-06-23T13:48:35.766Z,99154.55
2018-06-23T13:51:05.384Z,99159.45
2018-06-23T13:53:34.782Z,99152.12
2018-06-23T13:56:04.347Z,99153.09
2018-06-23T13:58:33.860Z,99157.16
2018-06-23T14:01:03.397Z,99152.39
2018-06-23T14:03:32.821Z,99147.25
2018-06-23T14:06:02.209Z,99146.70
2018-06-23T14:08:31.667Z,99151.06
2018-06-23T14:11:01.068Z,99149.63
2018-06-23T14:13:30.553Z,99139.62
2018-06-23T14:16:00.047Z,99139.06
2018-06-23T14:18:29.691Z,99133.40
2018-06-23T14:20:59.216Z,99135.98
2018-06-23T14:23:28.835Z,99130.69
2018-06-23T14:25:58.269Z,99130.53
2018-06-23T14:28:27.683Z,99125.39
2018-06-23T14:30:57.155Z,99126.39
2018-06-23T14:33:26.658Z,99132.28
2018-06-23T14:35:56.065Z,99129.31
2018-06-23T14:38:25.496Z,99129.09
2018-06-23T14:40:54.908Z,99124.14
2018-06-23T14:43:24.289Z,99130.76
2018-06-23T14:45:53.871Z,99131.13
2018-06-23T14:48:23.023Z,99122.22
2018-06-23T14:50:52.460Z,99127.77
2018-06-23T14:53:21.606Z,99121.92
2018-06-23T14:55:51.086Z,99133.41
2018-06-23T14:58:20.531Z,99122.45
2018-06-23T15:00:49.982Z,99125.83
2018-06-23T15:03:19.124Z,99126.42
2018-06-23T15:05:48.569Z,99112.70
2018-06-23T15:08:35.345Z,99116.22
2018-06-23T15:11:21.585Z,99114.29
2018-06-23T15:13:50.702Z,99120.09
2018-06-23T15:16:20.118Z,99116.55
2018-06-23T15:18:49.490Z,99120.41
2018-06-23T15:21:18.635Z,99122.16
2018-06-23T15:23:48.062Z,99124.14
2018-06-23T15:26:17.556Z,99124.08
2018-06-23T15:28:46.946Z,99111.95
2018-06-23T15:31:16.399Z,99112.34
2018-06-23T15:33:45.860Z,99114.44
2018-06-23T15:36:15.335Z,99110.12
2018-06-23T15:38:44.766Z,99117.06
2018-06-23T15:41:14.166Z,99112.70
2018-06-23T15:43:43.583Z,99114.30
2018-06-23T15:46:12.998Z,99105.56
2018-06-23T15:48:42.424Z,99111.97
2018-06-23T15:51:12.015Z,99113.71
2018-06-23T15:53:41.445Z,99107.94
2018-06-23T15:56:10.912Z,99108.24
2018-06-23T15:58:40.352Z,99106.50
2018-06-23T16:01:09.834Z,99096.70
2018-06-23T16:03:39.285Z,99098.14
2018-06-23T16:06:08.666Z,99094.75
2018-06-23T16:08:38.215Z,99094.19
2018-06-23T16:11:07.731Z,99092.45
2018-06-23T16:13:37.308Z,99085.09
2018-06-23T16:16:06.754Z,99084.05
2018-06-23T16:18:36.157Z,99085.09
2018-06-23T16:21:05.680Z,99095.23
2018-06-23T16:23:35.128Z,99093.09
2018-06-23T16:26:04.642Z,99086.45
2018-06-23T16:28:33.852Z,99083.23
2018-06-23T16:31:03.234Z,99083.84
2018-06-23T16:33:32.722Z,99086.27
2018-06-23T16:36:02.200Z,99087.40
2018-06-23T16:38:31.657Z,99082.92
2018-06-23T16:41:01.128Z,99082.48
2018-06-23T16:43:30.580Z,99077.83
2018-06-23T16:46:00.068Z,99070.35
2018-06-23T16:48:29.496Z,99073.39
2018-06-23T16:50:58.987Z,99070.84
2018-06-23T16:53:28.410Z,99062.47
2018-06-23T16:55:57.841Z,99066.56
2018-06-23T16:58:27.306Z,99067.73
2018-06-23T17:00:56.788Z,99072.31
2018-06-23T17:03:26.317Z,99078.13
2018-06-23T17:05:55.710Z,99071.82
2018-06-23T17:08:25.163Z,99077.70
2018-06-23T17:10:54.556Z,99078.14
2018-06-23T17:13:24.016Z,99078.53
2018-06-23T17:15:53.416Z,99076.93
2018-06-23T17:18:22.835Z,99077.44
2018-06-23T17:20:52.375Z,99077.63
2018-06-23T17:23:21.917Z,99073.88
2018-06-23T17:25:52.334Z,99073.06
2018-06-23T17:28:21.820Z,99072.97
2018-06-23T17:30:51.218Z,99071.00
2018-06-23T17:33:20.655Z,99067.86
2018-06-23T17:35:50.867Z,99060.45
2018-06-23T17:38:20.313Z,99058.92
2018-06-23T17:40:49.784Z,99059.91
2018-06-23T17:43:19.246Z,99062.67
2018-06-23T17:45:48.680Z,99061.88
2018-06-23T17:48:18.161Z,99058.01
2018-06-23T17:50:47.521Z,99052.80
2018-06-23T17:53:16.980Z,99044.56
2018-06-23T17:55:46.437Z,99044.98
2018-06-23T17:58:15.889Z,99051.83
2018-06-23T18:00:45.402Z,99047.45
2018-06-23T18:03:14.945Z,99051.92
2018-06-23T18:05:44.373Z,99058.31
2018-06-23T18:08:13.856Z,99048.44
2018-06-23T18:10:43.303Z,99042.37
2018-06-23T18:13:12.505Z,99037.69
2018-06-23T18:15:41.929Z,99041.14
2018-06-23T18:18:11.418Z,99038.09
2018-06-23T18:20:40.824Z,99038.59
2018-06-23T18:23:09.984Z,99040.10
2018-06-23T18:25:39.514Z,99043.06
2018-06-23T18:28:09.025Z,99037.72
2018-06-23T18:30:38.155Z,99043.33
2018-06-23T18:33:07.759Z,99044.45
2018-06-23T18:35:37.186Z,99046.14
2018-06-23T18:38:07.148Z,99045.11
2018-06-23T18:40:36.566Z,99046.92
2018-06-23T18:43:06.060Z,99047.96
2018-06-23T18:45:35.955Z,99044.12
2018-06-23T18:48:05.495Z,99046.27
2018-06-23T18:50:34.918Z,99044.61
2018-06-23T18:53:04.540Z,99051.08
2018-06-23T18:55:34.011Z,99054.93
2018-06-23T18:58:03.489Z,99050.19
2018-06-23T19:00:32.973Z,99052.56
2018-06-23T19:03:02.423Z,99048.20
2018-06-23T19:05:31.831Z,99054.69
2018-06-23T19:08:01.291Z,99049.88
2018-06-23T19:10:30.763Z,99054.27
2018-06-23T19:13:00.176Z,99046.06
2018-06-23T19:15:29.661Z,99052.41
2018-06-23T19:17:59.049Z,99050.92
2018-06-23T19:20:28.227Z,99053.05
2018-06-23T19:22:57.639Z,99045.29
2018-06-23T19:25:27.512Z,99042.95
2018-06-23T19:27:56.996Z,99049.73
2018-06-23T19:30:26.449Z,99047.68
2018-06-23T19:32:55.916Z,99054.05
2018-06-23T19:35:25.410Z,99053.03
2018-06-23T19:37:54.532Z,99052.77
2018-06-23T19:40:24.109Z,99058.80
2018-06-23T19:42:53.628Z,99053.59
2018-06-23T19:45:23.222Z,99059.41
2018-06-23T19:47:52.398Z,99059.36
2018-06-23T19:50:21.835Z,99059.92
2018-06-23T19:52:51.255Z,99063.30
2018-06-23T19:55:20.724Z,99057.75
2018-06-23T19:57:50.231Z,99061.67
2018-06-23T20:00:19.712Z,99061.42
2018-06-23T20:02:49.179Z,99062.00
2018-06-23T20:05:18.690Z,99069.80
2018-06-23T20:07:48.065Z,99067.05
2018-06-23T20:12:08.270Z,99061.25
2018-06-23T20:14:37.766Z,99074.90
2018-06-23T20:17:07.320Z,99072.08
2018-06-23T20:19:36.682Z,99072.50
2018-06-23T20:22:06.300Z,99072.79
2018-06-23T20:24:35.725Z,99074.43
2018-06-23T20:27:05.413Z,99078.63
2018-06-23T20:29:34.649Z,99079.44
2018-06-23T20:32:04.099Z,99083.39
2018-06-23T20:34:33.498Z,99081.80
2018-06-23T20:37:02.923Z,99083.52
2018-06-23T20:39:32.061Z,99081.30
2018-06-23T20:42:01.533Z,99075.05
2018-06-23T20:44:31.096Z,99069.86
2018-06-23T20:47:00.774Z,99073.53
2018-06-23T20:49:30.193Z,99070.23
2018-06-23T20:51:59.626Z,99069.74
2018-06-23T20:54:29.557Z,99071.19
2018-06-23T20:56:59.016Z,99065.11
2018-06-23T20:59:28.461Z,99068.28
2018-06-23T21:01:57.866Z,99069.14
2018-06-23T21:04:27.282Z,99066.59
2018-06-23T21:06:56.737Z,99071.03
2018-06-23T21:09:26.225Z,99070.09
2018-06-23T21:11:55.660Z,99066.40
2018-06-23T21:14:25.126Z,99066.77
2018-06-23T21:16:54.628Z,99069.89
2018-06-23T21:19:24.151Z,99067.75
2018-06-23T21:21:53.542Z,99070.95
2018-06-23T21:24:23.102Z,99067.22
2018-06-23T21:26:52.591Z,99064.09
2018-06-23T21:29:22.051Z,99061.30
2018-06-23T21:31:51.528Z,99060.56
2018-06-23T21:34:21.996Z,99061.95
2018-06-23T21:36:51.483Z,99057.61
2018-06-23T21:39:20.881Z,99063.10
2018-06-23T21:41:50.388Z,99058.62
2018-06-23T21:44:19.919Z,99059.40
2018-06-23T21:46:49.384Z,99053.23
2018-06-23T21:49:18.846Z,99051.44
2018-06-23T21:51:48.279Z,99054.06
2018-06-23T21:54:17.717Z,99050.66
2018-06-23T21:56:47.162Z,99054.52
2018-06-23T21:59:16.551Z,99057.44
2018-06-23T22:01:46.098Z,99056.95
2018-06-23T22:04:15.576Z,99052.20
2018-06-23T22:06:44.932Z,99053.31
2018-06-23T22:09:14.455Z,99048.48
2018-06-23T22:11:43.960Z,99047.33
2018-06-23T22:14:13.402Z,99050.80
2018-06-23T22:16:42.829Z,99055.56
2018-06-23T22:19:12.286Z,99052.34
2018-06-23T22:21:41.775Z,99054.05
2018-06-23T22:24:11.226Z,99052.63
2018-06-23T22:26:40.727Z,99054.40
2018-06-23T22:29:10.133Z,99046.34
2018-06-23T22:31:39.544Z,99045.89
2018-06-23T22:34:09.000Z,99043.55
2018-06-23T22:36:38.442Z,99038.33
2018-06-23T22:39:10.676Z,99042.70
2018-06-23T22:41:40.143Z,99040.77
2018-06-23T22:44:09.858Z,99036.45
2018-06-23T22:46:39.290Z,99039.78
2018-06-23T22:49:08.710Z,99044.42
2018-06-23T22:51:38.208Z,99043.15
2018-06-23T22:54:07.691Z,99041.16
2018-06-23T22:56:37.111Z,99042.10
2018-06-23T22:59:06.772Z,99041.47
2018-06-23T23:01:36.221Z,99032.55
2018-06-23T23:04:05.657Z,99037.59
2018-06-23T23:06:35.098Z,99038.28
2018-06-23T23:09:06.441Z,99032.64
2018-06-23T23:11:35.873Z,99028.89
2018-06-23T23:14:06.245Z,99029.38
2018-06-23T23:16:36.023Z,99030.33
2018-06-23T23:19:05.520Z,99029.54
2018-06-23T23:21:34.999Z,99028.91
2018-06-23T23:24:04.431Z,99030.23
2018-06-23T23:26:33.836Z,99025.63
2018-06-23T23:29:03.245Z,99023.82
2018-06-23T23:31:32.592Z,99028.38
2018-06-23T23:34:02.037Z,99032.70
2018-06-23T23:36:31.437Z,99029.12
2018-06-23T23:39:00.894Z,99028.59
2018-06-23T23:41:30.309Z,99022.72
2018-06-23T23:43:59.754Z,99026.50
2018-06-23T23:46:29.234Z,99025.15
2018-06-23T23:48:58.729Z,99025.36
2018-06-23T23:51:28.205Z,99016.05
2018-06-23T23:53:57.829Z,99014.92
2018-06-23T23:56:27.295Z,99011.30
2018-06-23T23:58:56.894Z,99015.61
